createdAt,value
2023-04-23T00:00:43.450Z,77.23
2023-04-23T00:01:44.317Z,77.23
2023-04-23T00:02:45.342Z,77.17
2023-04-23T00:03:46.164Z,77.48
2023-04-23T00:04:47.209Z,78.09
2023-04-23T00:05:47.300Z,78.30
2023-04-23T00:06:48.137Z,78.96
2023-04-23T00:07:49.019Z,78.54
2023-04-23T00:08:49.898Z,79.16
2023-04-23T00:09:50.868Z,79.05
2023-04-23T00:10:51.756Z,78.75
2023-04-23T00:11:52.677Z,78.85
2023-04-23T00:12:53.512Z,78.75
2023-04-23T00:13:54.392Z,78.96
2023-04-23T00:14:55.292Z,78.96
2023-04-23T00:15:56.231Z,78.96
2023-04-23T00:16:57.077Z,78.85
2023-04-23T00:17:58.024Z,79.05
2023-04-23T00:18:58.856Z,78.85
2023-04-23T00:19:59.737Z,79.05
2023-04-23T00:21:00.618Z,79.05
2023-04-23T00:22:01.498Z,78.85
2023-04-23T00:23:02.378Z,78.54
2023-04-23T00:24:03.313Z,78.64
2023-04-23T00:25:04.166Z,78.75
2023-04-23T00:26:05.042Z,78.75
2023-04-23T00:27:05.922Z,78.64
2023-04-23T00:28:06.791Z,78.33
2023-04-23T00:29:07.767Z,78.44
2023-04-23T00:30:08.255Z,78.75
2023-04-23T00:31:09.116Z,78.85
2023-04-23T00:32:10.209Z,78.96
2023-04-23T00:33:10.769Z,78.75
2023-04-23T00:34:11.648Z,78.85
2023-04-23T00:35:12.538Z,78.96
2023-04-23T00:36:13.453Z,79.05
2023-04-23T00:37:14.298Z,79.47
2023-04-23T00:38:15.180Z,78.96
2023-04-23T00:39:16.052Z,79.67
2023-04-23T00:40:16.943Z,78.96
2023-04-23T00:41:17.823Z,79.26
2023-04-23T00:42:18.736Z,79.19
2023-04-23T00:43:19.598Z,79.40
2023-04-23T00:44:20.479Z,79.19
2023-04-23T00:45:21.392Z,79.61
2023-04-23T00:46:22.357Z,79.81
2023-04-23T00:47:22.811Z,79.40
2023-04-23T00:48:23.700Z,79.30
2023-04-23T00:49:24.548Z,79.30
2023-04-23T00:50:25.435Z,79.50
2023-04-23T00:51:26.319Z,79.40
2023-04-23T00:52:27.204Z,79.19
2023-04-23T00:53:28.076Z,79.50
2023-04-23T00:54:28.989Z,78.99
2023-04-23T00:55:29.851Z,79.19
2023-04-23T00:56:30.730Z,78.89
2023-04-23T00:57:31.608Z,78.89
2023-04-23T00:58:32.493Z,79.09
2023-04-23T00:59:33.368Z,78.78
2023-04-23T01:00:34.304Z,78.27
2023-04-23T01:01:35.183Z,78.58
2023-04-23T01:02:36.232Z,78.37
2023-04-23T01:03:36.915Z,78.47
2023-04-23T01:04:37.361Z,78.47
2023-04-23T01:05:38.242Z,78.78
2023-04-23T01:06:39.126Z,79.09
2023-04-23T01:07:40.000Z,78.47
2023-04-23T01:08:40.875Z,78.68
2023-04-23T01:09:41.747Z,78.99
2023-04-23T01:10:42.647Z,78.78
2023-04-23T01:11:43.515Z,78.78
2023-04-23T01:12:44.392Z,78.89
2023-04-23T01:13:45.283Z,79.30
2023-04-23T01:14:46.145Z,79.71
2023-04-23T01:15:47.060Z,78.89
2023-04-23T01:16:47.936Z,78.58
2023-04-23T01:17:48.838Z,78.27
2023-04-23T01:18:49.688Z,79.09
2023-04-23T01:19:50.570Z,78.68
2023-04-23T01:20:51.482Z,78.68
2023-04-23T01:21:52.334Z,78.68
2023-04-23T01:22:53.225Z,78.68
2023-04-23T01:23:54.101Z,79.33
2023-04-23T01:24:54.986Z,79.03
2023-04-23T01:25:55.864Z,79.33
2023-04-23T01:26:56.734Z,79.64
2023-04-23T01:27:57.614Z,79.54
2023-04-23T01:28:58.506Z,79.64
2023-04-23T01:29:59.367Z,79.54
2023-04-23T01:31:00.339Z,79.54
2023-04-23T01:32:01.213Z,79.85
2023-04-23T01:33:02.075Z,79.85
2023-04-23T01:34:02.952Z,80.16
2023-04-23T01:35:03.860Z,79.71
2023-04-23T01:36:04.720Z,79.61
2023-04-23T01:37:05.606Z,79.09
2023-04-23T01:38:06.276Z,79.19
2023-04-23T01:39:07.148Z,80.12
2023-04-23T01:40:08.078Z,80.33
2023-04-23T01:41:08.948Z,79.50
2023-04-23T01:42:09.816Z,80.63
2023-04-23T01:43:10.685Z,80.98
2023-04-23T01:44:11.567Z,80.77
2023-04-23T01:45:12.445Z,80.57
2023-04-23T01:46:13.413Z,80.77
2023-04-23T01:47:14.244Z,80.98
2023-04-23T01:48:15.114Z,81.33
2023-04-23T01:49:15.990Z,81.53
2023-04-23T01:50:16.879Z,81.33
2023-04-23T01:51:17.780Z,81.74
2023-04-23T01:52:18.699Z,82.15
2023-04-23T01:53:19.529Z,82.05
2023-04-23T01:54:20.433Z,81.84
2023-04-23T01:55:21.307Z,82.05
2023-04-23T01:56:22.179Z,81.74
2023-04-23T01:57:23.067Z,81.95
2023-04-23T01:58:23.982Z,81.84
2023-04-23T01:59:24.826Z,82.05
2023-04-23T02:00:25.708Z,82.05
2023-04-23T02:01:26.675Z,82.11
2023-04-23T02:02:27.685Z,82.11
2023-04-23T02:03:28.252Z,81.70
2023-04-23T02:04:28.763Z,81.49
2023-04-23T02:05:29.624Z,81.49
2023-04-23T02:06:30.512Z,81.39
2023-04-23T02:07:31.388Z,80.98
2023-04-23T02:08:32.261Z,80.77
2023-04-23T02:09:33.133Z,80.47
2023-04-23T02:10:34.050Z,80.67
2023-04-23T02:11:34.919Z,80.36
2023-04-23T02:12:35.905Z,80.26
2023-04-23T02:13:36.293Z,80.16
2023-04-23T02:14:37.172Z,80.16
2023-04-23T02:15:38.060Z,79.64
2023-04-23T02:16:38.981Z,79.95
2023-04-23T02:17:39.875Z,80.16
2023-04-23T02:18:40.738Z,80.47
2023-04-23T02:19:41.621Z,80.26
2023-04-23T02:20:42.501Z,80.47
2023-04-23T02:21:43.386Z,80.33
2023-04-23T02:22:44.298Z,80.33
2023-04-23T02:23:45.146Z,80.33
2023-04-23T02:24:46.025Z,80.02
2023-04-23T02:25:46.912Z,80.22
2023-04-23T02:26:47.807Z,80.12
2023-04-23T02:27:48.667Z,80.22
2023-04-23T02:28:49.594Z,80.63
2023-04-23T02:29:50.449Z,80.63
2023-04-23T02:30:51.311Z,80.84
2023-04-23T02:31:52.277Z,80.43
2023-04-23T02:32:53.181Z,80.43
2023-04-23T02:33:54.020Z,80.43
2023-04-23T02:34:54.921Z,80.74
2023-04-23T02:35:55.773Z,80.33
2023-04-23T02:36:56.657Z,80.53
2023-04-23T02:37:57.539Z,80.74
2023-04-23T02:38:58.419Z,80.22
2023-04-23T02:39:59.290Z,80.53
2023-04-23T02:41:00.216Z,80.77
2023-04-23T02:42:01.072Z,80.57
2023-04-23T02:43:01.954Z,81.09
2023-04-23T02:44:02.823Z,81.39
2023-04-23T02:45:03.701Z,80.77
2023-04-23T02:46:04.572Z,80.67
2023-04-23T02:47:05.543Z,80.77
2023-04-23T02:48:06.369Z,80.77
2023-04-23T02:49:07.252Z,80.57
2023-04-23T02:50:08.139Z,80.67
2023-04-23T02:51:09.011Z,80.88
2023-04-23T02:52:09.898Z,80.77
2023-04-23T02:53:10.819Z,80.77
2023-04-23T02:54:11.706Z,80.98
2023-04-23T02:55:12.550Z,80.98
2023-04-23T02:56:13.448Z,80.88
2023-04-23T02:57:14.331Z,81.09
2023-04-23T02:58:15.194Z,80.88
2023-04-23T02:59:16.126Z,81.19
2023-04-23T03:00:16.985Z,81.60
2023-04-23T03:01:17.993Z,81.70
2023-04-23T03:02:18.501Z,82.01
2023-04-23T03:03:19.477Z,81.81
2023-04-23T03:04:19.895Z,81.91
2023-04-23T03:05:20.802Z,82.01
2023-04-23T03:06:21.657Z,81.29
2023-04-23T03:07:22.548Z,81.60
2023-04-23T03:08:23.432Z,81.49
2023-04-23T03:09:24.314Z,81.49
2023-04-23T03:10:25.191Z,81.49
2023-04-23T03:11:26.104Z,81.39
2023-04-23T03:12:26.963Z,81.70
2023-04-23T03:13:27.852Z,82.42
2023-04-23T03:14:28.722Z,82.01
2023-04-23T03:15:29.607Z,81.49
2023-04-23T03:16:30.481Z,81.49
2023-04-23T03:17:31.417Z,82.01
2023-04-23T03:18:32.253Z,81.49
2023-04-23T03:19:33.130Z,81.39
2023-04-23T03:20:34.019Z,81.09
2023-04-23T03:21:34.918Z,81.60
2023-04-23T03:22:35.797Z,81.70
2023-04-23T03:23:36.694Z,81.74
2023-04-23T03:24:37.546Z,81.74
2023-04-23T03:25:38.422Z,81.33
2023-04-23T03:26:39.294Z,81.23
2023-04-23T03:27:40.380Z,81.33
2023-04-23T03:28:40.796Z,81.74
2023-04-23T03:29:41.744Z,81.84
2023-04-23T03:30:42.627Z,81.63
2023-04-23T03:31:43.490Z,81.84
2023-04-23T03:32:44.419Z,81.74
2023-04-23T03:33:45.265Z,81.49
2023-04-23T03:34:46.129Z,81.29
2023-04-23T03:35:47.051Z,81.49
2023-04-23T03:36:47.893Z,82.11
2023-04-23T03:37:48.784Z,81.81
2023-04-23T03:38:49.666Z,81.81
2023-04-23T03:39:50.549Z,81.70
2023-04-23T03:40:51.425Z,81.49
2023-04-23T03:41:52.343Z,81.60
2023-04-23T03:42:53.227Z,81.39
2023-04-23T03:43:54.091Z,81.70
2023-04-23T03:44:54.968Z,81.60
2023-04-23T03:45:55.866Z,81.49
2023-04-23T03:46:56.729Z,81.49
2023-04-23T03:47:57.662Z,81.29
2023-04-23T03:48:58.479Z,81.49
2023-04-23T03:49:59.360Z,81.81
2023-04-23T03:51:00.246Z,81.49
2023-04-23T03:52:01.131Z,81.81
2023-04-23T03:53:02.004Z,81.81
2023-04-23T03:54:02.894Z,82.11
2023-04-23T03:55:03.770Z,82.32
2023-04-23T03:56:04.645Z,82.21
2023-04-23T03:57:05.526Z,82.42
2023-04-23T03:58:06.368Z,82.21
2023-04-23T03:59:07.236Z,82.63
2023-04-23T04:00:08.140Z,82.42
2023-04-23T04:01:08.980Z,82.32
2023-04-23T04:02:09.862Z,82.42
2023-04-23T04:03:10.832Z,82.73
2023-04-23T04:04:11.453Z,82.83
2023-04-23T04:05:12.318Z,83.25
2023-04-23T04:06:12.828Z,83.55
2023-04-23T04:07:13.665Z,83.25
2023-04-23T04:08:14.490Z,83.14
2023-04-23T04:09:15.311Z,83.04
2023-04-23T04:10:16.138Z,82.83
2023-04-23T04:11:16.953Z,83.65
2023-04-23T04:12:17.780Z,83.65
2023-04-23T04:13:18.604Z,84.17
2023-04-23T04:14:19.443Z,84.17
2023-04-23T04:15:20.295Z,84.07
2023-04-23T04:16:21.109Z,84.38
2023-04-23T04:17:21.945Z,84.27
2023-04-23T04:18:22.791Z,84.79
2023-04-23T04:19:23.588Z,84.99
2023-04-23T04:20:24.420Z,84.79
2023-04-23T04:21:25.248Z,85.10
2023-04-23T04:22:26.097Z,84.89
2023-04-23T04:23:26.923Z,84.89
2023-04-23T04:24:27.749Z,85.20
2023-04-23T04:25:28.567Z,85.30
2023-04-23T04:26:29.403Z,85.20
2023-04-23T04:27:30.221Z,85.20
2023-04-23T04:28:31.046Z,85.61
2023-04-23T04:29:31.881Z,85.71
2023-04-23T04:30:32.706Z,85.30
2023-04-23T04:31:33.539Z,85.51
2023-04-23T04:32:34.399Z,85.10
2023-04-23T04:33:35.224Z,86.16
2023-04-23T04:34:36.031Z,86.47
2023-04-23T04:35:36.855Z,86.79
2023-04-23T04:36:37.711Z,86.52
2023-04-23T04:37:38.583Z,86.82
2023-04-23T04:38:39.360Z,87.75
2023-04-23T04:39:40.174Z,87.75
2023-04-23T04:40:41.009Z,88.17
2023-04-23T04:41:41.822Z,88.26
2023-04-23T04:42:42.650Z,88.47
2023-04-23T04:43:43.472Z,88.68
2023-04-23T04:44:44.302Z,88.68
2023-04-23T04:45:45.138Z,88.57
2023-04-23T04:46:45.971Z,88.26
2023-04-23T04:47:46.841Z,87.75
2023-04-23T04:48:47.658Z,87.65
2023-04-23T04:49:48.421Z,87.75
2023-04-23T04:50:49.244Z,87.85
2023-04-23T04:51:50.076Z,88.57
2023-04-23T04:52:50.904Z,87.85
2023-04-23T04:53:51.718Z,87.75
2023-04-23T04:54:52.556Z,89.19
2023-04-23T04:55:53.370Z,89.19
2023-04-23T04:56:54.187Z,89.15
2023-04-23T04:57:55.028Z,89.50
2023-04-23T04:58:55.844Z,89.46
2023-04-23T04:59:56.681Z,89.15
2023-04-23T05:00:57.517Z,89.36
2023-04-23T05:01:58.322Z,89.91
2023-04-23T05:02:59.363Z,89.91
2023-04-23T05:04:00.008Z,89.61
2023-04-23T05:05:00.540Z,90.12
2023-04-23T05:06:01.346Z,90.22
2023-04-23T05:07:02.174Z,90.53
2023-04-23T05:08:03.001Z,90.12
2023-04-23T05:09:03.842Z,90.18
2023-04-23T05:10:04.648Z,90.28
2023-04-23T05:11:05.476Z,89.97
2023-04-23T05:12:06.291Z,90.08
2023-04-23T05:13:07.126Z,90.28
2023-04-23T05:14:07.941Z,90.28
2023-04-23T05:15:08.782Z,90.08
2023-04-23T05:16:09.628Z,90.39
2023-04-23T05:17:10.426Z,90.90
2023-04-23T05:18:11.257Z,91.62
2023-04-23T05:19:12.096Z,92.34
2023-04-23T05:20:12.905Z,91.62
2023-04-23T05:21:13.734Z,90.80
2023-04-23T05:22:14.571Z,90.18
2023-04-23T05:23:15.388Z,90.14
2023-04-23T05:24:16.216Z,89.83
2023-04-23T05:25:17.043Z,89.83
2023-04-23T05:26:17.881Z,89.62
2023-04-23T05:27:18.686Z,89.22
2023-04-23T05:28:19.528Z,88.80
2023-04-23T05:29:20.352Z,89.01
2023-04-23T05:30:21.214Z,88.80
2023-04-23T05:31:22.064Z,88.59
2023-04-23T05:32:22.903Z,89.22
2023-04-23T05:33:23.751Z,89.31
2023-04-23T05:34:24.574Z,90.45
2023-04-23T05:35:25.380Z,89.42
2023-04-23T05:36:26.201Z,89.22
2023-04-23T05:37:27.021Z,89.11
2023-04-23T05:38:27.908Z,90.14
2023-04-23T05:39:28.690Z,89.62
2023-04-23T05:40:29.525Z,89.83
2023-04-23T05:41:30.330Z,90.24
2023-04-23T05:42:31.155Z,90.14
2023-04-23T05:43:31.988Z,90.34
2023-04-23T05:44:32.822Z,89.94
2023-04-23T05:45:33.661Z,89.62
2023-04-23T05:46:34.587Z,90.34
2023-04-23T05:47:35.406Z,90.45
2023-04-23T05:48:36.228Z,90.45
2023-04-23T05:49:37.054Z,90.45
2023-04-23T05:50:37.872Z,90.92
2023-04-23T05:51:38.688Z,91.02
2023-04-23T05:52:39.554Z,90.92
2023-04-23T05:53:40.358Z,90.92
2023-04-23T05:54:41.466Z,91.23
2023-04-23T05:55:41.921Z,91.44
2023-04-23T05:56:42.760Z,91.95
2023-04-23T05:57:43.580Z,91.44
2023-04-23T05:58:44.414Z,91.33
2023-04-23T05:59:45.231Z,91.33
2023-04-23T06:00:46.082Z,91.23
2023-04-23T06:01:46.888Z,91.19
2023-04-23T06:02:47.880Z,90.78
2023-04-23T06:03:48.455Z,91.60
2023-04-23T06:04:49.300Z,91.19
2023-04-23T06:05:49.837Z,90.26
2023-04-23T06:06:50.603Z,90.78
2023-04-23T06:07:51.432Z,90.78
2023-04-23T06:08:52.279Z,90.26
2023-04-23T06:09:53.103Z,90.16
2023-04-23T06:10:53.923Z,90.16
2023-04-23T06:11:54.739Z,91.39
2023-04-23T06:12:55.616Z,91.39
2023-04-23T06:13:56.458Z,90.47
2023-04-23T06:14:57.341Z,90.67
2023-04-23T06:15:58.168Z,91.08
2023-04-23T06:16:58.981Z,90.94
2023-04-23T06:17:59.822Z,90.22
2023-04-23T06:19:00.642Z,89.60
2023-04-23T06:20:01.511Z,89.40
2023-04-23T06:21:02.350Z,89.19
2023-04-23T06:22:03.130Z,89.19
2023-04-23T06:23:03.975Z,89.70
2023-04-23T06:24:04.794Z,89.40
2023-04-23T06:25:05.633Z,88.64
2023-04-23T06:26:06.441Z,88.43
2023-04-23T06:27:07.332Z,88.43
2023-04-23T06:28:08.108Z,88.33
2023-04-23T06:29:08.945Z,88.02
2023-04-23T06:30:09.770Z,87.40
2023-04-23T06:31:10.599Z,86.58
2023-04-23T06:32:11.413Z,86.58
2023-04-23T06:33:12.290Z,87.10
2023-04-23T06:34:13.087Z,87.30
2023-04-23T06:35:13.935Z,87.30
2023-04-23T06:36:14.766Z,87.61
2023-04-23T06:37:15.561Z,87.51
2023-04-23T06:38:16.396Z,87.82
2023-04-23T06:39:17.237Z,87.61
2023-04-23T06:40:18.061Z,87.46
2023-04-23T06:41:18.881Z,87.57
2023-04-23T06:42:19.705Z,87.67
2023-04-23T06:43:20.536Z,87.77
2023-04-23T06:44:21.370Z,88.08
2023-04-23T06:45:22.190Z,88.08
2023-04-23T06:46:23.033Z,88.70
2023-04-23T06:47:23.839Z,88.86
2023-04-23T06:48:24.654Z,89.27
2023-04-23T06:49:25.542Z,89.07
2023-04-23T06:50:26.442Z,88.66
2023-04-23T06:51:27.209Z,88.66
2023-04-23T06:52:28.042Z,89.13
2023-04-23T06:53:28.868Z,89.13
2023-04-23T06:54:29.696Z,88.62
2023-04-23T06:55:30.538Z,88.31
2023-04-23T06:56:31.348Z,88.82
2023-04-23T06:57:32.173Z,89.03
2023-04-23T06:58:32.997Z,89.09
2023-04-23T06:59:33.827Z,89.39
2023-04-23T07:00:34.673Z,88.68
2023-04-23T07:01:35.524Z,88.17
2023-04-23T07:02:36.555Z,87.41
2023-04-23T07:03:36.947Z,87.61
2023-04-23T07:04:37.899Z,86.69
2023-04-23T07:05:38.778Z,86.96
2023-04-23T07:06:39.577Z,87.06
2023-04-23T07:07:40.405Z,86.96
2023-04-23T07:08:41.237Z,86.96
2023-04-23T07:09:42.077Z,86.96
2023-04-23T07:10:42.882Z,86.81
2023-04-23T07:11:43.706Z,86.51
2023-04-23T07:12:44.526Z,86.81
2023-04-23T07:13:45.362Z,86.81
2023-04-23T07:14:46.225Z,86.61
2023-04-23T07:15:47.089Z,86.40
2023-04-23T07:16:48.027Z,86.81
2023-04-23T07:17:48.881Z,86.81
2023-04-23T07:18:49.649Z,86.61
2023-04-23T07:19:50.489Z,86.91
2023-04-23T07:20:51.324Z,87.12
2023-04-23T07:21:52.131Z,87.53
2023-04-23T07:22:52.959Z,87.73
2023-04-23T07:23:53.776Z,88.04
2023-04-23T07:24:54.615Z,88.14
2023-04-23T07:25:55.443Z,88.45
2023-04-23T07:26:56.270Z,88.45
2023-04-23T07:27:57.088Z,88.65
2023-04-23T07:28:57.904Z,88.76
2023-04-23T07:29:58.742Z,88.56
2023-04-23T07:30:59.578Z,88.56
2023-04-23T07:32:00.434Z,88.65
2023-04-23T07:33:01.333Z,88.65
2023-04-23T07:34:02.180Z,88.96
2023-04-23T07:35:03.007Z,88.56
2023-04-23T07:36:04.165Z,88.65
2023-04-23T07:37:04.463Z,89.06
2023-04-23T07:38:05.285Z,88.35
2023-04-23T07:39:06.116Z,88.24
2023-04-23T07:40:06.941Z,88.45
2023-04-23T07:41:07.761Z,88.14
2023-04-23T07:42:08.585Z,87.84
2023-04-23T07:43:09.702Z,87.73
2023-04-23T07:44:09.973Z,87.63
2023-04-23T07:45:11.090Z,87.53
2023-04-23T07:46:11.394Z,88.14
2023-04-23T07:47:12.284Z,88.14
2023-04-23T07:48:13.095Z,88.14
2023-04-23T07:49:13.924Z,87.94
2023-04-23T07:50:14.760Z,87.94
2023-04-23T07:51:15.600Z,87.84
2023-04-23T07:52:16.404Z,87.94
2023-04-23T07:53:17.235Z,88.14
2023-04-23T07:54:18.051Z,88.35
2023-04-23T07:55:18.889Z,88.56
2023-04-23T07:56:19.714Z,88.76
2023-04-23T07:57:20.558Z,88.45
2023-04-23T07:58:21.363Z,87.94
2023-04-23T07:59:22.196Z,88.10
2023-04-23T08:00:23.074Z,88.41
2023-04-23T08:01:23.897Z,87.90
2023-04-23T08:02:24.765Z,88.00
2023-04-23T08:03:25.862Z,88.00
2023-04-23T08:04:26.532Z,88.10
2023-04-23T08:05:27.054Z,88.20
2023-04-23T08:06:27.883Z,87.70
2023-04-23T08:07:28.692Z,87.29
2023-04-23T08:08:29.519Z,87.59
2023-04-23T08:09:30.362Z,87.59
2023-04-23T08:10:31.175Z,88.00
2023-04-23T08:11:32.012Z,87.45
2023-04-23T08:12:32.828Z,87.55
2023-04-23T08:13:33.667Z,87.24
2023-04-23T08:14:34.500Z,86.73
2023-04-23T08:15:35.320Z,86.73
2023-04-23T08:16:38.711Z,86.73
2023-04-23T08:17:36.921Z,86.69
2023-04-23T08:18:37.718Z,87.51
2023-04-23T08:19:38.562Z,87.51
2023-04-23T08:20:39.364Z,86.79
2023-04-23T08:21:40.267Z,86.04
2023-04-23T08:22:41.076Z,86.04
2023-04-23T08:23:41.897Z,86.65
2023-04-23T08:24:42.764Z,86.04
2023-04-23T08:25:43.573Z,85.83
2023-04-23T08:26:44.406Z,85.02
2023-04-23T08:27:45.296Z,85.12
2023-04-23T08:28:46.128Z,85.32
2023-04-23T08:29:46.961Z,84.98
2023-04-23T08:30:47.810Z,85.08
2023-04-23T08:31:48.635Z,84.77
2023-04-23T08:32:49.491Z,83.95
2023-04-23T08:33:50.333Z,83.75
2023-04-23T08:34:51.167Z,84.06
2023-04-23T08:35:51.999Z,83.54
2023-04-23T08:36:52.840Z,83.34
2023-04-23T08:37:53.648Z,83.75
2023-04-23T08:38:54.479Z,83.95
2023-04-23T08:39:55.313Z,83.44
2023-04-23T08:40:56.157Z,83.14
2023-04-23T08:41:56.978Z,83.54
2023-04-23T08:42:57.798Z,82.83
2023-04-23T08:43:58.624Z,83.14
2023-04-23T08:44:59.472Z,83.14
2023-04-23T08:46:00.282Z,83.44
2023-04-23T08:47:01.173Z,83.75
2023-04-23T08:48:02.653Z,84.06
2023-04-23T08:49:02.630Z,83.75
2023-04-23T08:50:03.461Z,83.44
2023-04-23T08:51:04.288Z,83.44
2023-04-23T08:52:05.132Z,83.71
2023-04-23T08:53:05.943Z,82.79
2023-04-23T08:54:06.775Z,82.28
2023-04-23T08:55:07.654Z,81.98
2023-04-23T08:56:08.490Z,82.08
2023-04-23T08:57:09.320Z,81.57
2023-04-23T08:58:10.139Z,81.57
2023-04-23T08:59:10.961Z,81.73
2023-04-23T09:00:11.836Z,81.53
2023-04-23T09:01:12.680Z,81.43
2023-04-23T09:02:13.564Z,80.82
2023-04-23T09:03:14.467Z,80.41
2023-04-23T09:04:15.253Z,80.41
2023-04-23T09:05:16.083Z,80.30
2023-04-23T09:06:16.917Z,80.41
2023-04-23T09:07:17.763Z,80.61
2023-04-23T09:08:18.565Z,79.80
2023-04-23T09:09:19.391Z,79.28
2023-04-23T09:10:20.260Z,79.80
2023-04-23T09:11:21.086Z,79.90
2023-04-23T09:12:21.905Z,80.20
2023-04-23T09:13:22.848Z,80.20
2023-04-23T09:14:23.617Z,80.61
2023-04-23T09:15:24.458Z,80.20
2023-04-23T09:16:25.308Z,79.86
2023-04-23T09:17:26.127Z,80.37
2023-04-23T09:18:26.945Z,80.47
2023-04-23T09:19:27.772Z,80.16
2023-04-23T09:20:28.704Z,79.93
2023-04-23T09:21:29.525Z,80.02
2023-04-23T09:22:30.397Z,80.13
2023-04-23T09:23:31.190Z,79.41
2023-04-23T09:24:32.011Z,79.11
2023-04-23T09:25:32.848Z,78.70
2023-04-23T09:26:33.680Z,78.70
2023-04-23T09:27:34.531Z,78.60
2023-04-23T09:28:35.357Z,78.80
2023-04-23T09:29:36.203Z,79.32
2023-04-23T09:30:37.024Z,79.41
2023-04-23T09:31:37.892Z,78.91
2023-04-23T09:32:38.721Z,79.00
2023-04-23T09:33:39.506Z,79.32
2023-04-23T09:34:40.333Z,79.41
2023-04-23T09:35:41.170Z,79.11
2023-04-23T09:36:42.014Z,79.52
2023-04-23T09:37:42.848Z,79.41
2023-04-23T09:38:43.653Z,79.32
2023-04-23T09:39:44.487Z,79.11
2023-04-23T09:40:45.313Z,78.80
2023-04-23T09:41:46.142Z,78.70
2023-04-23T09:42:46.990Z,78.19
2023-04-23T09:43:47.806Z,78.09
2023-04-23T09:44:48.627Z,78.09
2023-04-23T09:45:49.536Z,77.98
2023-04-23T09:46:50.329Z,78.30
2023-04-23T09:47:51.211Z,78.19
2023-04-23T09:48:52.005Z,78.16
2023-04-23T09:49:52.872Z,78.87
2023-04-23T09:50:53.681Z,79.07
2023-04-23T09:51:54.505Z,78.56
2023-04-23T09:52:55.364Z,79.07
2023-04-23T09:53:56.158Z,79.24
2023-04-23T09:54:57.003Z,79.44
2023-04-23T09:55:57.823Z,77.61
2023-04-23T09:56:58.652Z,78.32
2023-04-23T09:57:59.474Z,79.03
2023-04-23T09:59:00.303Z,78.39
2023-04-23T10:00:13.303Z,77.67
2023-04-23T10:01:02.873Z,76.76
2023-04-23T10:02:02.674Z,76.76
2023-04-23T10:03:03.730Z,76.15
2023-04-23T10:04:04.255Z,77.26
2023-04-23T10:05:21.805Z,78.15
2023-04-23T10:06:09.189Z,76.72
2023-04-23T10:07:18.045Z,75.91
2023-04-23T10:08:07.936Z,75.67
2023-04-23T10:09:07.742Z,74.76
2023-04-23T10:10:08.562Z,74.96
2023-04-23T10:11:20.248Z,73.94
2023-04-23T10:12:27.825Z,73.94
2023-04-23T10:13:11.829Z,74.04
2023-04-23T10:14:11.679Z,73.67
2023-04-23T10:15:12.500Z,73.87
2023-04-23T10:16:22.590Z,73.63
2023-04-23T10:17:15.068Z,73.57
2023-04-23T10:18:14.890Z,74.18
2023-04-23T10:19:15.720Z,73.74
2023-04-23T10:20:16.555Z,73.63
2023-04-23T10:21:17.385Z,73.13
2023-04-23T10:22:19.872Z,73.63
2023-04-23T10:23:19.100Z,72.92
2023-04-23T10:24:19.904Z,73.23
2023-04-23T10:25:20.731Z,73.74
2023-04-23T10:26:21.575Z,74.21
2023-04-23T10:27:30.674Z,73.60
2023-04-23T10:28:24.109Z,74.11
2023-04-23T10:29:23.926Z,72.78
2023-04-23T10:30:24.747Z,72.08
2023-04-23T10:31:25.645Z,71.77
2023-04-23T10:32:26.433Z,71.77
2023-04-23T10:33:31.790Z,72.17
2023-04-23T10:34:28.999Z,71.36
2023-04-23T10:35:28.788Z,71.06
2023-04-23T10:36:29.639Z,71.77
2023-04-23T10:37:30.462Z,71.57
2023-04-23T10:38:31.306Z,71.67
2023-04-23T10:39:32.112Z,71.47
2023-04-23T10:40:32.938Z,70.92
2023-04-23T10:41:33.781Z,70.72
2023-04-23T10:42:34.609Z,71.33
2023-04-23T10:43:35.437Z,71.23
2023-04-23T10:44:56.571Z,71.43
2023-04-23T10:45:37.976Z,70.62
2023-04-23T10:46:39.428Z,70.11
2023-04-23T10:47:38.430Z,70.01
2023-04-23T10:48:39.216Z,70.31
2023-04-23T10:49:40.115Z,70.52
2023-04-23T10:51:00.330Z,70.92
2023-04-23T10:52:42.413Z,70.18
2023-04-23T10:53:43.251Z,70.59
2023-04-23T10:54:44.051Z,70.89
2023-04-23T10:55:44.914Z,71.06
2023-04-23T10:56:45.732Z,69.34
2023-04-23T10:57:46.544Z,69.54
2023-04-23T10:58:47.393Z,69.74
2023-04-23T10:59:48.202Z,71.06
2023-04-23T11:00:49.027Z,71.06
2023-04-23T11:01:49.895Z,70.62
2023-04-23T11:02:50.867Z,71.33
2023-04-23T11:03:51.358Z,69.20
2023-04-23T11:04:51.854Z,69.51
2023-04-23T11:05:55.831Z,69.40
2023-04-23T11:06:53.636Z,68.90
2023-04-23T11:07:54.465Z,68.29
2023-04-23T11:08:55.403Z,68.70
2023-04-23T11:09:56.170Z,68.39
2023-04-23T11:10:57.006Z,67.98
2023-04-23T11:11:57.881Z,68.49
2023-04-23T11:12:58.667Z,68.83
2023-04-23T11:14:00.729Z,69.84
2023-04-23T11:15:00.302Z,69.84
2023-04-23T11:16:01.166Z,70.04
2023-04-23T11:17:01.969Z,70.92
2023-04-23T11:18:02.896Z,70.92
2023-04-23T11:19:03.777Z,69.00
2023-04-23T11:20:04.605Z,68.08
2023-04-23T11:21:05.408Z,68.59
2023-04-23T11:22:06.302Z,68.39
2023-04-23T11:23:06.852Z,68.79
2023-04-23T11:24:07.678Z,69.10
2023-04-23T11:25:08.467Z,70.01
2023-04-23T11:26:09.303Z,70.08
2023-04-23T11:27:10.159Z,69.27
2023-04-23T11:28:10.965Z,68.56
2023-04-23T11:29:11.782Z,68.26
2023-04-23T11:30:12.651Z,69.37
2023-04-23T11:31:13.444Z,68.56
2023-04-23T11:32:14.402Z,68.35
2023-04-23T11:33:14.807Z,68.46
2023-04-23T11:34:15.625Z,68.87
2023-04-23T11:35:16.452Z,69.95
2023-04-23T11:36:17.300Z,68.83
2023-04-23T11:37:18.120Z,68.43
2023-04-23T11:38:18.935Z,68.93
2023-04-23T11:39:19.792Z,68.12
2023-04-23T11:40:20.583Z,67.41
2023-04-23T11:41:21.412Z,67.61
2023-04-23T11:42:22.251Z,67.61
2023-04-23T11:43:23.084Z,68.26
2023-04-23T11:44:23.900Z,68.23
2023-04-23T11:45:24.722Z,67.92
2023-04-23T11:46:25.575Z,68.23
2023-04-23T11:47:26.464Z,69.13
2023-04-23T11:48:27.263Z,68.43
2023-04-23T11:49:28.104Z,68.32
2023-04-23T11:50:28.923Z,68.70
2023-04-23T11:51:29.749Z,68.29
2023-04-23T11:52:30.585Z,69.31
2023-04-23T11:53:31.418Z,68.46
2023-04-23T11:54:32.275Z,67.65
2023-04-23T11:55:33.078Z,66.54
2023-04-23T11:56:33.906Z,66.71
2023-04-23T11:57:34.743Z,66.41
2023-04-23T11:58:35.609Z,66.00
2023-04-23T11:59:36.352Z,66.50
2023-04-23T12:00:37.195Z,66.41
2023-04-23T12:01:38.008Z,65.90
2023-04-23T12:02:39.067Z,64.99
2023-04-23T12:03:39.593Z,65.70
2023-04-23T12:04:41.396Z,65.29
2023-04-23T12:05:41.344Z,65.50
2023-04-23T12:06:42.178Z,66.41
2023-04-23T12:07:43.015Z,65.59
2023-04-23T12:08:43.848Z,65.26
2023-04-23T12:09:44.719Z,65.87
2023-04-23T12:10:45.486Z,65.47
2023-04-23T12:11:46.311Z,66.58
2023-04-23T12:12:47.172Z,66.27
2023-04-23T12:13:47.987Z,65.23
2023-04-23T12:14:48.814Z,64.62
2023-04-23T12:15:49.726Z,64.02
2023-04-23T12:16:50.491Z,64.62
2023-04-23T12:17:51.378Z,64.32
2023-04-23T12:18:52.186Z,65.23
2023-04-23T12:19:53.004Z,64.22
2023-04-23T12:20:53.830Z,64.32
2023-04-23T12:21:54.678Z,64.02
2023-04-23T12:22:55.501Z,65.30
2023-04-23T12:23:56.324Z,64.19
2023-04-23T12:24:57.201Z,64.39
2023-04-23T12:25:57.975Z,63.99
2023-04-23T12:26:58.840Z,63.99
2023-04-23T12:27:59.652Z,63.99
2023-04-23T12:29:00.478Z,63.58
2023-04-23T12:30:01.315Z,64.19
2023-04-23T12:31:02.190Z,64.09
2023-04-23T12:32:03.023Z,63.68
2023-04-23T12:33:03.932Z,62.87
2023-04-23T12:34:04.728Z,62.98
2023-04-23T12:35:05.544Z,62.67
2023-04-23T12:36:06.366Z,63.48
2023-04-23T12:37:07.194Z,63.18
2023-04-23T12:38:08.028Z,64.12
2023-04-23T12:39:08.856Z,63.81
2023-04-23T12:40:09.778Z,63.31
2023-04-23T12:41:10.557Z,63.31
2023-04-23T12:42:11.386Z,63.31
2023-04-23T12:43:12.250Z,63.51
2023-04-23T12:44:13.079Z,64.32
2023-04-23T12:45:13.895Z,63.92
2023-04-23T12:46:14.752Z,63.41
2023-04-23T12:47:15.570Z,64.04
2023-04-23T12:48:16.398Z,63.44
2023-04-23T12:49:17.207Z,63.75
2023-04-23T12:50:18.038Z,63.84
2023-04-23T12:51:18.866Z,64.55
2023-04-23T12:52:19.683Z,64.86
2023-04-23T12:53:20.517Z,64.96
2023-04-23T12:54:21.405Z,65.26
2023-04-23T12:55:22.250Z,64.86
2023-04-23T12:56:23.108Z,65.36
2023-04-23T12:57:23.875Z,65.06
2023-04-23T12:58:24.700Z,64.76
2023-04-23T12:59:25.531Z,65.09
2023-04-23T13:00:26.399Z,65.39
2023-04-23T13:01:27.202Z,64.79
2023-04-23T13:02:28.173Z,65.39
2023-04-23T13:03:28.741Z,65.59
2023-04-23T13:04:29.043Z,65.70